Terminal Aerodrome Forecast
Issued by NWS

Home | Current Version | Previous Version | Graphics & Text | Print | Product List | Glossary On
Versions: 1 2 3 4 5 6 7 8 9 10 11 12 13 14 15 16 17 18 19 20 21 22
000
FTUS43 KBIS 142348
TAFJMS
TAF
KJMS 142348Z 1500/1524 31008KT P6SM SCT120
     FM150200 31010KT P6SM BKN110
     FM150400 31014KT P6SM SCT025 SCT150
     FM150700 31018G27KT P6SM BKN015 OVC035
     FM151500 33017G25KT P6SM BKN025 OVC045
     FM152100 34011KT P6SM SCT040=

USA.gov is the U.S. government's official web portal to all federal, state and local government web resources and services.